Aeroporto :
LOGIN :

Iscrizione | Disclaimer

   EN    FR    IT 

 










Sommario :    VFR   VFR Marginale   IFR   IFR Intensivo   IFR Molto Intensivo
Visibilità : 
Base nubi : 
>= 8 km
>= 3000ft
5 / 8 km
1000 / 3000 ft
1500m / 5 km
500 / 1000 ft
800 / 1500m
200 / 500 ft
< 800m
< 200 ft
Simboli :   Temporali  Nebbia  Neve Forte  Precipitazioni Forti  Vento > 20 kt
SIGMETs :   Varie  Temporali  Ghiacco  Turbolenza  Onda orograficha  Ceneri Vulcaniche






- Altitudine del aeroporto : 0 ft


ENQA - Troll A Platform

ULTIMO METAR :
  • 231120Z AUTO 02016KT 9999NDV BKN037/// OVC050/// 05/M02 Q0992 W05/S6

METARs OBSOLETI :
  • 231050Z AUTO 01010KT 9999NDV FEW036/// BKN053/// 06/M03 Q0992 W05/S6
  • 231020Z AUTO 02008KT 9999NDV OVC053/// 05/M03 Q0992 W05/S6
  • 230950Z AUTO 03013KT 9999NDV BKN037/// 05/M02 Q0991 W05/S6
  • 230920Z AUTO 01009KT 9999NDV BKN052/// 05/M04 Q0991 W05/S6
  • 230850Z AUTO 02005KT 9999NDV BKN050/// BKN100/// 05/M02 Q0991 W05/S6

TAF N/A



MetMap, La meteo Aeronautica in un colpo d'occhio ! - Copyright ORBIFLY Dicembre 2007 - Disclaimer

ORBIFLY MET'MAP TEAM :

Programmazione e sviluppo : Alexandra Zaïnal
Concezione : Baudouin d'Aumeries
Aiuto per la programmazione : Marc-Olivier Méhu
Supporto tecnico e logistico : Manuel Goepfert
Aiuto per la traduzione : Arnaldo La Scala

Contatto : metmap@orbifly.com




FONTI E CREDITI :

   NOAA